sensor_id;sensor_type;location;lat;lon;timestamp;P1;durP1;ratioP1;P2;durP2;ratioP2
78858;SDS011;68210;52.032;4.634;2023-09-08T00:01:27;15.05;;;10.77;;
78858;SDS011;68210;52.032;4.634;2023-09-08T00:03:27;15.65;;;10.40;;
78858;SDS011;68210;52.032;4.634;2023-09-08T00:05:28;13.65;;;10.05;;
78858;SDS011;68210;52.032;4.634;2023-09-08T00:07:29;11.98;;;9.30;;
78858;SDS011;68210;52.032;4.634;2023-09-08T00:09:29;12.13;;;10.20;;
78858;SDS011;68210;52.032;4.634;2023-09-08T00:11:29;15.85;;;10.43;;
78858;SDS011;68210;52.032;4.634;2023-09-08T00:13:30;15.32;;;9.27;;
78858;SDS011;68210;52.032;4.634;2023-09-08T00:15:30;12.73;;;10.35;;
78858;SDS011;68210;52.032;4.634;2023-09-08T00:17:33;14.25;;;9.95;;
78858;SDS011;68210;52.032;4.634;2023-09-08T00:19:34;15.73;;;9.88;;
78858;SDS011;68210;52.032;4.634;2023-09-08T00:21:34;15.30;;;11.60;;
78858;SDS011;68210;52.032;4.634;2023-09-08T00:23:36;15.45;;;10.15;;
78858;SDS011;68210;52.032;4.634;2023-09-08T00:25:37;16.10;;;11.20;;
78858;SDS011;68210;52.032;4.634;2023-09-08T00:27:37;14.75;;;9.95;;
78858;SDS011;68210;52.032;4.634;2023-09-08T00:29:37;14.30;;;10.68;;
78858;SDS011;68210;52.032;4.634;2023-09-08T00:31:38;14.75;;;10.25;;
78858;SDS011;68210;52.032;4.634;2023-09-08T00:33:38;15.85;;;11.27;;
78858;SDS011;68210;52.032;4.634;2023-09-08T00:35:39;18.17;;;11.85;;
78858;SDS011;68210;52.032;4.634;2023-09-08T00:37:40;14.85;;;11.30;;
78858;SDS011;68210;52.032;4.634;2023-09-08T00:39:40;18.83;;;11.02;;
78858;SDS011;68210;52.032;4.634;2023-09-08T00:41:41;17.17;;;11.77;;
78858;SDS011;68210;52.032;4.634;2023-09-08T00:43:41;13.57;;;9.95;;
78858;SDS011;68210;52.032;4.634;2023-09-08T00:45:42;15.88;;;11.05;;
78858;SDS011;68210;52.032;4.634;2023-09-08T00:47:42;19.00;;;11.55;;
78858;SDS011;68210;52.032;4.634;2023-09-08T00:49:42;15.15;;;12.13;;
78858;SDS011;68210;52.032;4.634;2023-09-08T00:51:43;15.95;;;11.95;;
78858;SDS011;68210;52.032;4.634;2023-09-08T00:53:44;16.40;;;11.82;;
78858;SDS011;68210;52.032;4.634;2023-09-08T00:55:44;14.85;;;11.82;;
78858;SDS011;68210;52.032;4.634;2023-09-08T00:57:45;15.68;;;12.52;;
78858;SDS011;68210;52.032;4.634;2023-09-08T00:59:45;16.13;;;12.48;;
78858;SDS011;68210;52.032;4.634;2023-09-08T01:01:45;17.83;;;12.57;;
78858;SDS011;68210;52.032;4.634;2023-09-08T01:03:46;18.70;;;13.20;;
78858;SDS011;68210;52.032;4.634;2023-09-08T01:05:46;15.25;;;11.50;;
78858;SDS011;68210;52.032;4.634;2023-09-08T01:07:48;18.10;;;12.13;;
78858;SDS011;68210;52.032;4.634;2023-09-08T01:09:49;17.48;;;12.15;;
78858;SDS011;68210;52.032;4.634;2023-09-08T01:11:50;15.48;;;10.48;;
78858;SDS011;68210;52.032;4.634;2023-09-08T01:13:51;15.80;;;12.00;;
78858;SDS011;68210;52.032;4.634;2023-09-08T01:15:51;16.83;;;12.70;;
78858;SDS011;68210;52.032;4.634;2023-09-08T01:17:51;16.75;;;12.05;;
78858;SDS011;68210;52.032;4.634;2023-09-08T01:19:53;17.65;;;12.80;;
78858;SDS011;68210;52.032;4.634;2023-09-08T01:22:04;14.65;;;11.68;;
78858;SDS011;68210;52.032;4.634;2023-09-08T01:27:02;16.55;;;12.15;;
78858;SDS011;68210;52.032;4.634;2023-09-08T01:29:03;17.35;;;11.75;;
78858;SDS011;68210;52.032;4.634;2023-09-08T01:31:05;16.92;;;12.13;;
78858;SDS011;68210;52.032;4.634;2023-09-08T01:33:05;21.30;;;13.35;;
78858;SDS011;68210;52.032;4.634;2023-09-08T01:35:06;17.60;;;11.70;;
78858;SDS011;68210;52.032;4.634;2023-09-08T01:37:07;19.25;;;12.90;;
78858;SDS011;68210;52.032;4.634;2023-09-08T01:39:08;18.23;;;12.75;;
78858;SDS011;68210;52.032;4.634;2023-09-08T01:41:08;16.45;;;12.73;;
78858;SDS011;68210;52.032;4.634;2023-09-08T01:43:09;19.58;;;13.70;;
78858;SDS011;68210;52.032;4.634;2023-09-08T01:45:10;20.85;;;14.48;;
78858;SDS011;68210;52.032;4.634;2023-09-08T01:47:10;20.65;;;13.93;;
78858;SDS011;68210;52.032;4.634;2023-09-08T01:49:11;18.50;;;13.55;;
78858;SDS011;68210;52.032;4.634;2023-09-08T01:51:11;20.27;;;14.07;;
78858;SDS011;68210;52.032;4.634;2023-09-08T01:53:11;20.80;;;14.57;;
78858;SDS011;68210;52.032;4.634;2023-09-08T01:55:12;21.42;;;15.20;;
78858;SDS011;68210;52.032;4.634;2023-09-08T01:57:12;21.70;;;14.32;;
78858;SDS011;68210;52.032;4.634;2023-09-08T01:59:12;20.60;;;13.23;;
78858;SDS011;68210;52.032;4.634;2023-09-08T02:01:13;22.58;;;14.32;;
78858;SDS011;68210;52.032;4.634;2023-09-08T02:03:13;18.63;;;13.73;;
78858;SDS011;68210;52.032;4.634;2023-09-08T02:05:14;22.73;;;15.23;;
78858;SDS011;68210;52.032;4.634;2023-09-08T02:07:14;20.88;;;14.70;;
78858;SDS011;68210;52.032;4.634;2023-09-08T02:09:14;19.88;;;13.07;;
78858;SDS011;68210;52.032;4.634;2023-09-08T02:11:15;20.25;;;14.70;;
78858;SDS011;68210;52.032;4.634;2023-09-08T02:13:15;20.85;;;13.35;;
78858;SDS011;68210;52.032;4.634;2023-09-08T02:15:15;18.30;;;13.27;;
78858;SDS011;68210;52.032;4.634;2023-09-08T02:17:17;19.25;;;13.52;;
78858;SDS011;68210;52.032;4.634;2023-09-08T02:19:17;21.60;;;13.77;;
78858;SDS011;68210;52.032;4.634;2023-09-08T02:21:18;18.60;;;14.73;;
78858;SDS011;68210;52.032;4.634;2023-09-08T02:23:18;21.35;;;13.10;;
78858;SDS011;68210;52.032;4.634;2023-09-08T02:25:18;17.58;;;13.65;;
78858;SDS011;68210;52.032;4.634;2023-09-08T02:27:19;18.50;;;13.45;;
78858;SDS011;68210;52.032;4.634;2023-09-08T02:29:19;21.52;;;13.38;;
78858;SDS011;68210;52.032;4.634;2023-09-08T02:31:19;18.67;;;12.98;;
78858;SDS011;68210;52.032;4.634;2023-09-08T02:33:20;20.02;;;13.23;;
78858;SDS011;68210;52.032;4.634;2023-09-08T02:35:21;17.95;;;13.32;;
78858;SDS011;68210;52.032;4.634;2023-09-08T02:37:23;18.85;;;13.70;;
78858;SDS011;68210;52.032;4.634;2023-09-08T02:39:23;22.33;;;14.80;;
78858;SDS011;68210;52.032;4.634;2023-09-08T02:41:26;17.90;;;13.15;;
78858;SDS011;68210;52.032;4.634;2023-09-08T02:43:26;19.30;;;13.48;;
78858;SDS011;68210;52.032;4.634;2023-09-08T02:45:27;21.90;;;15.30;;
78858;SDS011;68210;52.032;4.634;2023-09-08T02:47:27;22.27;;;14.93;;
78858;SDS011;68210;52.032;4.634;2023-09-08T02:49:28;23.33;;;15.18;;
78858;SDS011;68210;52.032;4.634;2023-09-08T02:51:28;20.42;;;14.63;;
78858;SDS011;68210;52.032;4.634;2023-09-08T02:53:28;20.35;;;12.65;;
78858;SDS011;68210;52.032;4.634;2023-09-08T02:55:30;19.15;;;13.45;;
78858;SDS011;68210;52.032;4.634;2023-09-08T02:57:30;21.58;;;14.68;;
78858;SDS011;68210;52.032;4.634;2023-09-08T02:59:30;24.35;;;14.75;;
78858;SDS011;68210;52.032;4.634;2023-09-08T03:01:31;17.30;;;12.75;;
78858;SDS011;68210;52.032;4.634;2023-09-08T03:03:32;21.30;;;12.48;;
78858;SDS011;68210;52.032;4.634;2023-09-08T03:05:33;19.40;;;13.07;;
78858;SDS011;68210;52.032;4.634;2023-09-08T03:07:33;18.33;;;12.95;;
78858;SDS011;68210;52.032;4.634;2023-09-08T03:09:37;18.02;;;12.93;;
78858;SDS011;68210;52.032;4.634;2023-09-08T03:11:38;20.65;;;13.73;;
78858;SDS011;68210;52.032;4.634;2023-09-08T03:13:39;18.95;;;12.07;;
78858;SDS011;68210;52.032;4.634;2023-09-08T03:15:39;18.50;;;11.95;;
78858;SDS011;68210;52.032;4.634;2023-09-08T03:17:39;19.90;;;13.38;;
78858;SDS011;68210;52.032;4.634;2023-09-08T03:19:40;19.08;;;12.13;;
78858;SDS011;68210;52.032;4.634;2023-09-08T03:21:44;20.77;;;12.15;;
78858;SDS011;68210;52.032;4.634;2023-09-08T03:23:45;22.10;;;14.93;;
78858;SDS011;68210;52.032;4.634;2023-09-08T03:25:45;22.13;;;12.38;;
78858;SDS011;68210;52.032;4.634;2023-09-08T03:27:46;20.52;;;13.32;;
78858;SDS011;68210;52.032;4.634;2023-09-08T03:29:46;19.02;;;13.20;;
78858;SDS011;68210;52.032;4.634;2023-09-08T03:31:46;19.50;;;12.60;;
78858;SDS011;68210;52.032;4.634;2023-09-08T03:33:47;16.23;;;11.43;;
78858;SDS011;68210;52.032;4.634;2023-09-08T03:35:47;17.10;;;11.98;;
78858;SDS011;68210;52.032;4.634;2023-09-08T03:37:47;18.50;;;12.32;;
78858;SDS011;68210;52.032;4.634;2023-09-08T03:39:48;17.30;;;12.23;;
78858;SDS011;68210;52.032;4.634;2023-09-08T03:41:48;17.08;;;12.60;;
78858;SDS011;68210;52.032;4.634;2023-09-08T03:43:48;14.43;;;10.60;;
78858;SDS011;68210;52.032;4.634;2023-09-08T03:45:49;14.85;;;10.60;;
78858;SDS011;68210;52.032;4.634;2023-09-08T03:47:49;18.75;;;13.20;;
78858;SDS011;68210;52.032;4.634;2023-09-08T03:49:49;19.80;;;12.27;;
78858;SDS011;68210;52.032;4.634;2023-09-08T03:51:50;21.55;;;12.48;;
78858;SDS011;68210;52.032;4.634;2023-09-08T03:53:50;18.50;;;12.55;;
78858;SDS011;68210;52.032;4.634;2023-09-08T03:55:51;19.05;;;13.60;;
78858;SDS011;68210;52.032;4.634;2023-09-08T03:57:51;16.70;;;10.63;;
78858;SDS011;68210;52.032;4.634;2023-09-08T03:59:51;18.25;;;12.18;;
78858;SDS011;68210;52.032;4.634;2023-09-08T04:01:52;19.38;;;13.43;;
78858;SDS011;68210;52.032;4.634;2023-09-08T04:03:52;17.48;;;11.98;;
78858;SDS011;68210;52.032;4.634;2023-09-08T04:05:52;18.60;;;12.23;;
78858;SDS011;68210;52.032;4.634;2023-09-08T04:07:53;16.25;;;12.25;;
78858;SDS011;68210;52.032;4.634;2023-09-08T04:09:53;16.75;;;12.38;;
78858;SDS011;68210;52.032;4.634;2023-09-08T04:11:53;17.42;;;11.95;;
78858;SDS011;68210;52.032;4.634;2023-09-08T04:13:55;18.52;;;12.98;;
78858;SDS011;68210;52.032;4.634;2023-09-08T04:15:55;17.73;;;11.60;;
78858;SDS011;68210;52.032;4.634;2023-09-08T04:17:55;17.83;;;11.70;;
78858;SDS011;68210;52.032;4.634;2023-09-08T04:19:57;17.92;;;11.82;;
78858;SDS011;68210;52.032;4.634;2023-09-08T04:21:57;19.25;;;12.20;;
78858;SDS011;68210;52.032;4.634;2023-09-08T04:23:57;16.42;;;11.52;;
78858;SDS011;68210;52.032;4.634;2023-09-08T04:25:58;16.25;;;11.35;;
78858;SDS011;68210;52.032;4.634;2023-09-08T04:27:58;20.33;;;12.52;;
78858;SDS011;68210;52.032;4.634;2023-09-08T04:29:58;20.55;;;12.68;;
78858;SDS011;68210;52.032;4.634;2023-09-08T04:31:59;16.73;;;12.80;;
78858;SDS011;68210;52.032;4.634;2023-09-08T04:33:59;18.88;;;11.60;;
78858;SDS011;68210;52.032;4.634;2023-09-08T04:36:00;20.88;;;13.07;;
78858;SDS011;68210;52.032;4.634;2023-09-08T04:38:00;19.65;;;11.88;;
78858;SDS011;68210;52.032;4.634;2023-09-08T04:40:00;16.15;;;11.65;;
78858;SDS011;68210;52.032;4.634;2023-09-08T04:42:01;19.33;;;12.73;;
78858;SDS011;68210;52.032;4.634;2023-09-08T04:44:01;19.70;;;12.35;;
78858;SDS011;68210;52.032;4.634;2023-09-08T04:46:02;20.40;;;13.55;;
78858;SDS011;68210;52.032;4.634;2023-09-08T04:48:05;16.63;;;12.02;;
78858;SDS011;68210;52.032;4.634;2023-09-08T04:50:05;18.85;;;12.63;;
78858;SDS011;68210;52.032;4.634;2023-09-08T04:52:06;19.88;;;13.18;;
78858;SDS011;68210;52.032;4.634;2023-09-08T04:54:06;17.70;;;12.73;;
78858;SDS011;68210;52.032;4.634;2023-09-08T04:56:06;21.05;;;13.25;;
78858;SDS011;68210;52.032;4.634;2023-09-08T04:58:07;20.52;;;13.52;;
78858;SDS011;68210;52.032;4.634;2023-09-08T05:00:08;17.60;;;12.40;;
78858;SDS011;68210;52.032;4.634;2023-09-08T05:02:08;17.35;;;12.23;;
78858;SDS011;68210;52.032;4.634;2023-09-08T05:04:09;19.25;;;12.73;;
78858;SDS011;68210;52.032;4.634;2023-09-08T05:06:10;21.25;;;13.43;;
78858;SDS011;68210;52.032;4.634;2023-09-08T05:08:10;18.50;;;12.20;;
78858;SDS011;68210;52.032;4.634;2023-09-08T05:10:11;20.10;;;12.68;;
78858;SDS011;68210;52.032;4.634;2023-09-08T05:12:11;21.92;;;13.25;;
78858;SDS011;68210;52.032;4.634;2023-09-08T05:14:11;19.55;;;12.65;;
78858;SDS011;68210;52.032;4.634;2023-09-08T05:16:12;21.48;;;12.73;;
78858;SDS011;68210;52.032;4.634;2023-09-08T05:18:12;19.05;;;13.07;;
78858;SDS011;68210;52.032;4.634;2023-09-08T05:20:13;21.27;;;13.45;;
78858;SDS011;68210;52.032;4.634;2023-09-08T05:22:13;21.33;;;12.27;;
78858;SDS011;68210;52.032;4.634;2023-09-08T05:24:14;19.90;;;13.13;;
78858;SDS011;68210;52.032;4.634;2023-09-08T05:26:14;24.63;;;12.80;;
78858;SDS011;68210;52.032;4.634;2023-09-08T05:28:15;20.45;;;12.93;;
78858;SDS011;68210;52.032;4.634;2023-09-08T05:30:16;20.60;;;11.68;;
78858;SDS011;68210;52.032;4.634;2023-09-08T05:32:16;22.50;;;12.27;;
78858;SDS011;68210;52.032;4.634;2023-09-08T05:34:16;18.45;;;11.77;;
78858;SDS011;68210;52.032;4.634;2023-09-08T05:36:17;17.38;;;11.52;;
78858;SDS011;68210;52.032;4.634;2023-09-08T05:38:17;19.52;;;11.43;;
78858;SDS011;68210;52.032;4.634;2023-09-08T05:40:17;18.50;;;13.60;;
78858;SDS011;68210;52.032;4.634;2023-09-08T05:42:18;18.10;;;12.70;;
78858;SDS011;68210;52.032;4.634;2023-09-08T05:44:19;20.95;;;12.70;;
78858;SDS011;68210;52.032;4.634;2023-09-08T05:46:20;18.35;;;13.43;;
78858;SDS011;68210;52.032;4.634;2023-09-08T05:48:20;19.05;;;12.40;;
78858;SDS011;68210;52.032;4.634;2023-09-08T05:50:20;19.13;;;13.18;;
78858;SDS011;68210;52.032;4.634;2023-09-08T05:52:21;18.05;;;12.13;;
78858;SDS011;68210;52.032;4.634;2023-09-08T05:54:21;20.23;;;12.63;;
78858;SDS011;68210;52.032;4.634;2023-09-08T05:56:24;18.63;;;13.13;;
78858;SDS011;68210;52.032;4.634;2023-09-08T05:58:26;22.85;;;12.27;;
78858;SDS011;68210;52.032;4.634;2023-09-08T06:00:27;23.17;;;13.80;;
78858;SDS011;68210;52.032;4.634;2023-09-08T06:02:27;22.17;;;13.80;;
78858;SDS011;68210;52.032;4.634;2023-09-08T06:04:28;22.00;;;12.98;;
78858;SDS011;68210;52.032;4.634;2023-09-08T06:06:28;21.45;;;12.93;;
78858;SDS011;68210;52.032;4.634;2023-09-08T06:08:29;20.30;;;12.98;;
78858;SDS011;68210;52.032;4.634;2023-09-08T06:10:29;24.10;;;12.77;;
78858;SDS011;68210;52.032;4.634;2023-09-08T06:12:30;18.92;;;13.15;;
78858;SDS011;68210;52.032;4.634;2023-09-08T06:14:31;19.60;;;12.07;;
78858;SDS011;68210;52.032;4.634;2023-09-08T06:16:31;20.30;;;12.30;;
78858;SDS011;68210;52.032;4.634;2023-09-08T06:18:31;22.17;;;14.48;;
78858;SDS011;68210;52.032;4.634;2023-09-08T06:20:32;18.02;;;11.88;;
78858;SDS011;68210;52.032;4.634;2023-09-08T06:22:32;20.02;;;12.57;;
78858;SDS011;68210;52.032;4.634;2023-09-08T06:24:32;24.58;;;11.90;;
78858;SDS011;68210;52.032;4.634;2023-09-08T06:26:33;17.63;;;11.63;;
78858;SDS011;68210;52.032;4.634;2023-09-08T06:28:33;19.27;;;12.82;;
78858;SDS011;68210;52.032;4.634;2023-09-08T06:30:34;17.80;;;12.15;;
78858;SDS011;68210;52.032;4.634;2023-09-08T06:32:34;22.30;;;11.52;;
78858;SDS011;68210;52.032;4.634;2023-09-08T06:34:34;21.70;;;13.52;;
78858;SDS011;68210;52.032;4.634;2023-09-08T06:36:35;17.60;;;12.00;;
78858;SDS011;68210;52.032;4.634;2023-09-08T06:38:36;19.00;;;13.25;;
78858;SDS011;68210;52.032;4.634;2023-09-08T06:40:36;18.42;;;12.27;;
78858;SDS011;68210;52.032;4.634;2023-09-08T06:42:37;17.67;;;12.27;;
78858;SDS011;68210;52.032;4.634;2023-09-08T06:44:37;21.30;;;13.48;;
78858;SDS011;68210;52.032;4.634;2023-09-08T06:46:37;18.10;;;13.32;;
78858;SDS011;68210;52.032;4.634;2023-09-08T06:48:37;20.23;;;13.57;;
78858;SDS011;68210;52.032;4.634;2023-09-08T06:50:38;23.05;;;13.35;;
78858;SDS011;68210;52.032;4.634;2023-09-08T06:52:38;14.57;;;10.60;;
78858;SDS011;68210;52.032;4.634;2023-09-08T06:54:39;15.30;;;10.38;;
78858;SDS011;68210;52.032;4.634;2023-09-08T06:56:39;17.98;;;12.52;;
78858;SDS011;68210;52.032;4.634;2023-09-08T06:58:39;19.52;;;14.02;;
78858;SDS011;68210;52.032;4.634;2023-09-08T07:00:40;19.10;;;13.35;;
78858;SDS011;68210;52.032;4.634;2023-09-08T07:02:41;17.70;;;13.68;;
78858;SDS011;68210;52.032;4.634;2023-09-08T07:04:41;15.63;;;10.80;;
78858;SDS011;68210;52.032;4.634;2023-09-08T07:06:41;16.70;;;11.20;;
78858;SDS011;68210;52.032;4.634;2023-09-08T07:08:43;19.30;;;13.65;;
78858;SDS011;68210;52.032;4.634;2023-09-08T07:10:44;22.48;;;13.63;;
78858;SDS011;68210;52.032;4.634;2023-09-08T07:12:44;22.08;;;13.85;;
78858;SDS011;68210;52.032;4.634;2023-09-08T07:14:44;20.40;;;13.95;;
78858;SDS011;68210;52.032;4.634;2023-09-08T07:16:45;16.52;;;11.45;;
78858;SDS011;68210;52.032;4.634;2023-09-08T07:18:45;16.38;;;12.20;;
78858;SDS011;68210;52.032;4.634;2023-09-08T07:20:46;16.23;;;13.25;;
78858;SDS011;68210;52.032;4.634;2023-09-08T07:22:48;15.63;;;11.30;;
78858;SDS011;68210;52.032;4.634;2023-09-08T07:24:48;15.38;;;11.98;;
78858;SDS011;68210;52.032;4.634;2023-09-08T07:26:48;15.82;;;12.23;;
78858;SDS011;68210;52.032;4.634;2023-09-08T07:28:49;17.20;;;12.75;;
78858;SDS011;68210;52.032;4.634;2023-09-08T07:30:49;17.95;;;13.57;;
78858;SDS011;68210;52.032;4.634;2023-09-08T07:32:49;20.48;;;15.13;;
78858;SDS011;68210;52.032;4.634;2023-09-08T07:34:50;16.98;;;13.90;;
78858;SDS011;68210;52.032;4.634;2023-09-08T07:36:54;20.10;;;14.93;;
78858;SDS011;68210;52.032;4.634;2023-09-08T07:38:55;17.25;;;12.18;;
78858;SDS011;68210;52.032;4.634;2023-09-08T07:40:55;18.92;;;13.27;;
78858;SDS011;68210;52.032;4.634;2023-09-08T07:42:55;16.88;;;12.70;;
78858;SDS011;68210;52.032;4.634;2023-09-08T07:44:56;16.58;;;11.38;;
78858;SDS011;68210;52.032;4.634;2023-09-08T07:46:56;18.25;;;12.88;;
78858;SDS011;68210;52.032;4.634;2023-09-08T07:48:57;18.67;;;12.10;;
78858;SDS011;68210;52.032;4.634;2023-09-08T07:50:59;20.30;;;15.02;;
78858;SDS011;68210;52.032;4.634;2023-09-08T07:53:00;19.58;;;14.02;;
78858;SDS011;68210;52.032;4.634;2023-09-08T07:55:00;17.00;;;13.68;;
78858;SDS011;68210;52.032;4.634;2023-09-08T07:57:00;14.20;;;11.50;;
78858;SDS011;68210;52.032;4.634;2023-09-08T07:59:01;17.08;;;14.57;;
78858;SDS011;68210;52.032;4.634;2023-09-08T08:01:01;16.05;;;11.60;;
78858;SDS011;68210;52.032;4.634;2023-09-08T08:03:02;25.33;;;13.27;;
78858;SDS011;68210;52.032;4.634;2023-09-08T08:05:02;22.88;;;14.98;;
78858;SDS011;68210;52.032;4.634;2023-09-08T08:07:03;19.85;;;12.63;;
78858;SDS011;68210;52.032;4.634;2023-09-08T08:09:03;18.45;;;13.20;;
78858;SDS011;68210;52.032;4.634;2023-09-08T08:11:10;21.27;;;15.95;;
78858;SDS011;68210;52.032;4.634;2023-09-08T08:13:14;18.45;;;13.45;;
78858;SDS011;68210;52.032;4.634;2023-09-08T08:15:15;20.15;;;14.35;;
78858;SDS011;68210;52.032;4.634;2023-09-08T08:17:15;19.13;;;14.02;;
78858;SDS011;68210;52.032;4.634;2023-09-08T08:21:17;19.43;;;15.50;;
78858;SDS011;68210;52.032;4.634;2023-09-08T08:23:18;19.58;;;15.13;;
78858;SDS011;68210;52.032;4.634;2023-09-08T08:25:18;23.05;;;14.60;;
78858;SDS011;68210;52.032;4.634;2023-09-08T08:27:18;27.63;;;15.68;;
78858;SDS011;68210;52.032;4.634;2023-09-08T08:29:19;18.85;;;13.80;;
78858;SDS011;68210;52.032;4.634;2023-09-08T08:31:19;19.63;;;16.70;;
78858;SDS011;68210;52.032;4.634;2023-09-08T08:33:19;21.27;;;16.67;;
78858;SDS011;68210;52.032;4.634;2023-09-08T08:35:21;20.55;;;15.23;;
78858;SDS011;68210;52.032;4.634;2023-09-08T08:37:21;18.85;;;16.00;;
78858;SDS011;68210;52.032;4.634;2023-09-08T08:39:21;18.58;;;12.95;;
78858;SDS011;68210;52.032;4.634;2023-09-08T08:41:22;21.48;;;16.73;;
78858;SDS011;68210;52.032;4.634;2023-09-08T08:43:22;20.17;;;16.05;;
78858;SDS011;68210;52.032;4.634;2023-09-08T08:45:24;19.25;;;13.13;;
78858;SDS011;68210;52.032;4.634;2023-09-08T08:47:27;20.75;;;14.80;;
78858;SDS011;68210;52.032;4.634;2023-09-08T08:49:30;21.85;;;14.07;;
78858;SDS011;68210;52.032;4.634;2023-09-08T08:51:31;30.70;;;15.73;;
78858;SDS011;68210;52.032;4.634;2023-09-08T08:53:32;18.83;;;14.57;;
78858;SDS011;68210;52.032;4.634;2023-09-08T08:55:34;18.65;;;13.77;;
78858;SDS011;68210;52.032;4.634;2023-09-08T08:57:38;18.15;;;13.73;;
78858;SDS011;68210;52.032;4.634;2023-09-08T08:59:39;20.17;;;14.88;;
78858;SDS011;68210;52.032;4.634;2023-09-08T09:01:42;19.73;;;15.13;;
78858;SDS011;68210;52.032;4.634;2023-09-08T09:03:42;23.00;;;14.07;;
78858;SDS011;68210;52.032;4.634;2023-09-08T09:05:44;17.08;;;11.10;;
78858;SDS011;68210;52.032;4.634;2023-09-08T09:07:44;20.40;;;13.93;;
78858;SDS011;68210;52.032;4.634;2023-09-08T09:09:45;18.13;;;14.02;;
78858;SDS011;68210;52.032;4.634;2023-09-08T09:11:45;18.02;;;13.15;;
78858;SDS011;68210;52.032;4.634;2023-09-08T09:13:45;20.50;;;13.27;;
78858;SDS011;68210;52.032;4.634;2023-09-08T09:15:46;15.60;;;11.83;;
78858;SDS011;68210;52.032;4.634;2023-09-08T09:18:01;19.23;;;14.80;;
78858;SDS011;68210;52.032;4.634;2023-09-08T09:20:14;32.35;;;15.77;;
78858;SDS011;68210;52.032;4.634;2023-09-08T09:22:19;23.40;;;14.10;;
78858;SDS011;68210;52.032;4.634;2023-09-08T09:26:43;18.30;;;14.70;;
78858;SDS011;68210;52.032;4.634;2023-09-08T09:28:47;18.13;;;13.55;;
78858;SDS011;68210;52.032;4.634;2023-09-08T09:30:49;19.10;;;14.70;;
78858;SDS011;68210;52.032;4.634;2023-09-08T09:33:00;20.45;;;13.10;;
78858;SDS011;68210;52.032;4.634;2023-09-08T09:35:02;18.73;;;14.20;;
78858;SDS011;68210;52.032;4.634;2023-09-08T09:37:03;25.67;;;14.65;;
78858;SDS011;68210;52.032;4.634;2023-09-08T09:39:05;17.52;;;15.57;;
78858;SDS011;68210;52.032;4.634;2023-09-08T09:41:05;23.23;;;17.08;;
78858;SDS011;68210;52.032;4.634;2023-09-08T09:43:06;19.45;;;13.95;;
78858;SDS011;68210;52.032;4.634;2023-09-08T09:45:07;24.83;;;17.17;;
78858;SDS011;68210;52.032;4.634;2023-09-08T09:47:09;17.13;;;14.43;;
78858;SDS011;68210;52.032;4.634;2023-09-08T09:49:16;20.92;;;15.48;;
78858;SDS011;68210;52.032;4.634;2023-09-08T09:51:19;17.50;;;13.43;;
78858;SDS011;68210;52.032;4.634;2023-09-08T09:53:20;21.65;;;14.60;;
78858;SDS011;68210;52.032;4.634;2023-09-08T09:55:20;22.38;;;14.18;;
78858;SDS011;68210;52.032;4.634;2023-09-08T09:57:21;25.27;;;16.27;;
78858;SDS011;68210;52.032;4.634;2023-09-08T09:59:22;21.38;;;14.65;;
78858;SDS011;68210;52.032;4.634;2023-09-08T10:01:24;26.83;;;15.40;;
78858;SDS011;68210;52.032;4.634;2023-09-08T10:03:25;15.30;;;12.00;;
78858;SDS011;68210;52.032;4.634;2023-09-08T10:05:26;23.23;;;16.25;;
78858;SDS011;68210;52.032;4.634;2023-09-08T10:07:27;19.98;;;14.93;;
78858;SDS011;68210;52.032;4.634;2023-09-08T10:09:28;17.33;;;12.38;;
78858;SDS011;68210;52.032;4.634;2023-09-08T10:11:28;19.58;;;12.75;;
78858;SDS011;68210;52.032;4.634;2023-09-08T10:13:30;18.10;;;14.07;;
78858;SDS011;68210;52.032;4.634;2023-09-08T10:15:33;20.10;;;15.88;;
78858;SDS011;68210;52.032;4.634;2023-09-08T10:17:34;23.85;;;13.07;;
78858;SDS011;68210;52.032;4.634;2023-09-08T10:19:34;18.45;;;13.48;;
78858;SDS011;68210;52.032;4.634;2023-09-08T10:21:42;17.27;;;12.32;;
78858;SDS011;68210;52.032;4.634;2023-09-08T10:23:49;17.75;;;12.23;;
78858;SDS011;68210;52.032;4.634;2023-09-08T10:25:59;20.30;;;13.65;;
78858;SDS011;68210;52.032;4.634;2023-09-08T10:28:03;16.85;;;12.57;;
78858;SDS011;68210;52.032;4.634;2023-09-08T10:30:05;16.00;;;12.55;;
78858;SDS011;68210;52.032;4.634;2023-09-08T10:32:08;16.35;;;12.93;;
78858;SDS011;68210;52.032;4.634;2023-09-08T10:34:09;15.77;;;10.73;;
78858;SDS011;68210;52.032;4.634;2023-09-08T10:36:10;17.90;;;10.93;;
78858;SDS011;68210;52.032;4.634;2023-09-08T10:40:36;14.65;;;10.52;;
78858;SDS011;68210;52.032;4.634;2023-09-08T10:42:39;11.63;;;8.80;;
78858;SDS011;68210;52.032;4.634;2023-09-08T10:44:40;12.73;;;9.02;;
78858;SDS011;68210;52.032;4.634;2023-09-08T10:46:40;10.95;;;8.40;;
78858;SDS011;68210;52.032;4.634;2023-09-08T10:48:44;14.65;;;11.00;;
78858;SDS011;68210;52.032;4.634;2023-09-08T10:50:44;11.07;;;8.15;;
78858;SDS011;68210;52.032;4.634;2023-09-08T10:52:45;11.68;;;8.57;;
78858;SDS011;68210;52.032;4.634;2023-09-08T10:55:03;15.52;;;11.48;;
78858;SDS011;68210;52.032;4.634;2023-09-08T10:57:06;17.17;;;11.00;;
78858;SDS011;68210;52.032;4.634;2023-09-08T10:59:12;14.73;;;10.88;;
78858;SDS011;68210;52.032;4.634;2023-09-08T11:01:13;12.35;;;9.27;;
78858;SDS011;68210;52.032;4.634;2023-09-08T11:03:25;16.20;;;10.35;;
78858;SDS011;68210;52.032;4.634;2023-09-08T11:05:55;15.80;;;11.38;;
78858;SDS011;68210;52.032;4.634;2023-09-08T11:07:56;12.05;;;10.15;;
78858;SDS011;68210;52.032;4.634;2023-09-08T11:09:56;13.25;;;10.45;;
78858;SDS011;68210;52.032;4.634;2023-09-08T11:11:58;16.52;;;11.55;;
78858;SDS011;68210;52.032;4.634;2023-09-08T11:14:03;13.63;;;10.93;;
78858;SDS011;68210;52.032;4.634;2023-09-08T11:16:03;21.15;;;11.63;;
78858;SDS011;68210;52.032;4.634;2023-09-08T11:18:04;13.43;;;8.77;;
78858;SDS011;68210;52.032;4.634;2023-09-08T11:20:05;14.10;;;8.77;;
78858;SDS011;68210;52.032;4.634;2023-09-08T11:22:09;11.25;;;7.72;;
78858;SDS011;68210;52.032;4.634;2023-09-08T11:24:10;14.27;;;9.70;;
78858;SDS011;68210;52.032;4.634;2023-09-08T11:26:14;11.57;;;9.05;;
78858;SDS011;68210;52.032;4.634;2023-09-08T11:28:15;10.95;;;7.95;;
78858;SDS011;68210;52.032;4.634;2023-09-08T11:30:16;10.00;;;7.30;;
78858;SDS011;68210;52.032;4.634;2023-09-08T11:32:17;10.40;;;7.68;;
78858;SDS011;68210;52.032;4.634;2023-09-08T11:34:17;8.93;;;7.13;;
78858;SDS011;68210;52.032;4.634;2023-09-08T11:36:18;14.93;;;7.88;;
78858;SDS011;68210;52.032;4.634;2023-09-08T11:38:25;9.93;;;8.75;;
78858;SDS011;68210;52.032;4.634;2023-09-08T11:40:26;10.35;;;6.68;;
78858;SDS011;68210;52.032;4.634;2023-09-08T11:42:27;10.50;;;6.88;;
78858;SDS011;68210;52.032;4.634;2023-09-08T11:44:27;8.88;;;6.57;;
78858;SDS011;68210;52.032;4.634;2023-09-08T11:46:28;11.50;;;6.68;;
78858;SDS011;68210;52.032;4.634;2023-09-08T11:48:28;10.35;;;6.65;;
78858;SDS011;68210;52.032;4.634;2023-09-08T11:50:29;10.00;;;6.88;;
78858;SDS011;68210;52.032;4.634;2023-09-08T11:52:30;8.27;;;6.53;;
78858;SDS011;68210;52.032;4.634;2023-09-08T11:54:34;8.32;;;6.32;;
78858;SDS011;68210;52.032;4.634;2023-09-08T11:56:35;10.57;;;7.28;;
78858;SDS011;68210;52.032;4.634;2023-09-08T11:58:36;9.68;;;6.60;;
78858;SDS011;68210;52.032;4.634;2023-09-08T12:00:36;9.85;;;6.38;;